sensor_id;sensor_type;location;lat;lon;timestamp;P1;durP1;ratioP1;P2;durP2;ratioP2
75009;SDS011;63564;46.840;18.336;2023-02-01T00:00:33;6.65;;;2.72;;
75009;SDS011;63564;46.840;18.336;2023-02-01T00:03:34;5.63;;;2.13;;
75009;SDS011;63564;46.840;18.336;2023-02-01T00:06:35;7.27;;;2.90;;
75009;SDS011;63564;46.840;18.336;2023-02-01T00:09:35;8.17;;;3.07;;
75009;SDS011;63564;46.840;18.336;2023-02-01T00:12:36;7.68;;;2.65;;
75009;SDS011;63564;46.840;18.336;2023-02-01T00:15:36;6.30;;;3.27;;
75009;SDS011;63564;46.840;18.336;2023-02-01T00:18:37;9.80;;;3.40;;
75009;SDS011;63564;46.840;18.336;2023-02-01T00:21:37;8.20;;;3.20;;
75009;SDS011;63564;46.840;18.336;2023-02-01T00:24:38;10.20;;;3.35;;
75009;SDS011;63564;46.840;18.336;2023-02-01T00:27:38;5.63;;;2.57;;
75009;SDS011;63564;46.840;18.336;2023-02-01T00:30:38;8.53;;;3.13;;
75009;SDS011;63564;46.840;18.336;2023-02-01T00:33:39;3.93;;;1.97;;
75009;SDS011;63564;46.840;18.336;2023-02-01T00:36:40;8.20;;;2.90;;
75009;SDS011;63564;46.840;18.336;2023-02-01T00:39:40;6.53;;;2.63;;
75009;SDS011;63564;46.840;18.336;2023-02-01T00:42:41;7.20;;;3.10;;
75009;SDS011;63564;46.840;18.336;2023-02-01T00:45:41;7.90;;;3.23;;
75009;SDS011;63564;46.840;18.336;2023-02-01T00:48:42;7.47;;;3.57;;
75009;SDS011;63564;46.840;18.336;2023-02-01T00:51:42;9.30;;;4.05;;
75009;SDS011;63564;46.840;18.336;2023-02-01T00:54:43;8.90;;;3.60;;
75009;SDS011;63564;46.840;18.336;2023-02-01T00:57:43;8.73;;;3.27;;
75009;SDS011;63564;46.840;18.336;2023-02-01T01:00:43;8.43;;;3.47;;
75009;SDS011;63564;46.840;18.336;2023-02-01T01:03:48;10.03;;;3.27;;
75009;SDS011;63564;46.840;18.336;2023-02-01T01:06:53;8.63;;;3.30;;
75009;SDS011;63564;46.840;18.336;2023-02-01T01:09:54;8.27;;;3.10;;
75009;SDS011;63564;46.840;18.336;2023-02-01T01:12:54;9.50;;;3.37;;
75009;SDS011;63564;46.840;18.336;2023-02-01T01:15:55;8.10;;;2.77;;
75009;SDS011;63564;46.840;18.336;2023-02-01T01:18:55;7.85;;;2.88;;
75009;SDS011;63564;46.840;18.336;2023-02-01T01:21:56;6.03;;;2.37;;
75009;SDS011;63564;46.840;18.336;2023-02-01T01:24:56;7.90;;;3.43;;
75009;SDS011;63564;46.840;18.336;2023-02-01T01:27:57;9.57;;;3.57;;
75009;SDS011;63564;46.840;18.336;2023-02-01T01:30:57;10.70;;;3.67;;
75009;SDS011;63564;46.840;18.336;2023-02-01T01:33:58;6.10;;;2.50;;
75009;SDS011;63564;46.840;18.336;2023-02-01T01:36:59;4.57;;;2.42;;
75009;SDS011;63564;46.840;18.336;2023-02-01T01:39:59;7.97;;;3.17;;
75009;SDS011;63564;46.840;18.336;2023-02-01T01:43:00;9.33;;;3.93;;
75009;SDS011;63564;46.840;18.336;2023-02-01T01:46:00;10.03;;;3.60;;
75009;SDS011;63564;46.840;18.336;2023-02-01T01:49:09;8.20;;;3.30;;
75009;SDS011;63564;46.840;18.336;2023-02-01T01:52:11;6.25;;;2.55;;
75009;SDS011;63564;46.840;18.336;2023-02-01T01:55:13;7.60;;;2.80;;
75009;SDS011;63564;46.840;18.336;2023-02-01T01:58:16;6.03;;;2.80;;
75009;SDS011;63564;46.840;18.336;2023-02-01T02:01:18;5.90;;;2.40;;
75009;SDS011;63564;46.840;18.336;2023-02-01T02:04:19;5.77;;;2.90;;
75009;SDS011;63564;46.840;18.336;2023-02-01T02:07:21;6.45;;;2.55;;
75009;SDS011;63564;46.840;18.336;2023-02-01T02:10:27;9.20;;;3.20;;
75009;SDS011;63564;46.840;18.336;2023-02-01T02:14:00;6.32;;;3.03;;
75009;SDS011;63564;46.840;18.336;2023-02-01T02:26:53;9.98;;;3.80;;
75009;SDS011;63564;46.840;18.336;2023-02-01T02:33:47;6.60;;;2.97;;
75009;SDS011;63564;46.840;18.336;2023-02-01T02:36:56;7.07;;;2.57;;
75009;SDS011;63564;46.840;18.336;2023-02-01T02:40:31;8.23;;;3.47;;
75009;SDS011;63564;46.840;18.336;2023-02-01T02:43:37;5.82;;;2.90;;
75009;SDS011;63564;46.840;18.336;2023-02-01T02:47:11;6.05;;;2.20;;
75009;SDS011;63564;46.840;18.336;2023-02-01T02:50:32;6.63;;;2.20;;
75009;SDS011;63564;46.840;18.336;2023-02-01T03:00:52;5.20;;;2.57;;
75009;SDS011;63564;46.840;18.336;2023-02-01T03:04:13;7.30;;;2.58;;
75009;SDS011;63564;46.840;18.336;2023-02-01T03:13:58;3.57;;;1.87;;
75009;SDS011;63564;46.840;18.336;2023-02-01T03:17:04;5.75;;;2.20;;
75009;SDS011;63564;46.840;18.336;2023-02-01T03:20:13;3.92;;;1.75;;
75009;SDS011;63564;46.840;18.336;2023-02-01T03:23:16;4.07;;;2.20;;
75009;SDS011;63564;46.840;18.336;2023-02-01T03:26:20;6.65;;;2.63;;
75009;SDS011;63564;46.840;18.336;2023-02-01T03:29:24;9.25;;;3.35;;
75009;SDS011;63564;46.840;18.336;2023-02-01T03:32:30;6.20;;;2.83;;
75009;SDS011;63564;46.840;18.336;2023-02-01T03:35:59;8.03;;;3.20;;
75009;SDS011;63564;46.840;18.336;2023-02-01T03:39:24;8.13;;;2.75;;
75009;SDS011;63564;46.840;18.336;2023-02-01T03:42:34;6.65;;;2.58;;
75009;SDS011;63564;46.840;18.336;2023-02-01T03:45:38;6.05;;;3.20;;
75009;SDS011;63564;46.840;18.336;2023-02-01T03:48:43;5.33;;;1.90;;
75009;SDS011;63564;46.840;18.336;2023-02-01T03:51:44;7.88;;;2.85;;
75009;SDS011;63564;46.840;18.336;2023-02-01T03:54:45;7.43;;;3.33;;
75009;SDS011;63564;46.840;18.336;2023-02-01T03:58:28;6.40;;;3.33;;
75009;SDS011;63564;46.840;18.336;2023-02-01T04:01:10;8.57;;;3.33;;
75009;SDS011;63564;46.840;18.336;2023-02-01T04:04:10;7.00;;;2.83;;
75009;SDS011;63564;46.840;18.336;2023-02-01T04:07:10;6.30;;;2.60;;
75009;SDS011;63564;46.840;18.336;2023-02-01T04:10:12;8.15;;;3.45;;
75009;SDS011;63564;46.840;18.336;2023-02-01T04:13:13;4.00;;;2.07;;
75009;SDS011;63564;46.840;18.336;2023-02-01T04:16:13;9.57;;;3.50;;
75009;SDS011;63564;46.840;18.336;2023-02-01T04:19:14;8.53;;;4.10;;
75009;SDS011;63564;46.840;18.336;2023-02-01T04:22:14;8.32;;;3.67;;
75009;SDS011;63564;46.840;18.336;2023-02-01T04:25:15;6.95;;;2.72;;
75009;SDS011;63564;46.840;18.336;2023-02-01T04:28:17;10.77;;;3.70;;
75009;SDS011;63564;46.840;18.336;2023-02-01T04:31:17;6.83;;;2.73;;
75009;SDS011;63564;46.840;18.336;2023-02-01T04:34:25;10.17;;;3.67;;
75009;SDS011;63564;46.840;18.336;2023-02-01T04:37:26;8.95;;;3.67;;
75009;SDS011;63564;46.840;18.336;2023-02-01T04:40:26;8.43;;;3.43;;
75009;SDS011;63564;46.840;18.336;2023-02-01T04:43:27;6.28;;;2.95;;
75009;SDS011;63564;46.840;18.336;2023-02-01T04:46:27;9.25;;;3.63;;
75009;SDS011;63564;46.840;18.336;2023-02-01T04:49:27;7.97;;;3.80;;
75009;SDS011;63564;46.840;18.336;2023-02-01T04:52:28;5.77;;;2.27;;
75009;SDS011;63564;46.840;18.336;2023-02-01T04:55:28;6.57;;;2.77;;
75009;SDS011;63564;46.840;18.336;2023-02-01T04:58:29;4.95;;;2.20;;
75009;SDS011;63564;46.840;18.336;2023-02-01T05:01:29;6.17;;;2.80;;
75009;SDS011;63564;46.840;18.336;2023-02-01T05:04:30;5.07;;;2.47;;
75009;SDS011;63564;46.840;18.336;2023-02-01T05:07:31;7.13;;;2.50;;
75009;SDS011;63564;46.840;18.336;2023-02-01T05:10:31;4.68;;;2.17;;
75009;SDS011;63564;46.840;18.336;2023-02-01T05:13:31;6.43;;;3.17;;
75009;SDS011;63564;46.840;18.336;2023-02-01T05:16:50;7.23;;;2.87;;
75009;SDS011;63564;46.840;18.336;2023-02-01T05:19:50;7.88;;;3.60;;
75009;SDS011;63564;46.840;18.336;2023-02-01T05:22:51;6.57;;;3.20;;
75009;SDS011;63564;46.840;18.336;2023-02-01T05:25:51;6.20;;;3.20;;
75009;SDS011;63564;46.840;18.336;2023-02-01T05:28:52;3.57;;;1.80;;
75009;SDS011;63564;46.840;18.336;2023-02-01T05:31:52;6.37;;;2.87;;
75009;SDS011;63564;46.840;18.336;2023-02-01T05:34:52;8.87;;;2.77;;
75009;SDS011;63564;46.840;18.336;2023-02-01T05:37:53;5.18;;;2.35;;
75009;SDS011;63564;46.840;18.336;2023-02-01T05:40:53;6.37;;;2.30;;
75009;SDS011;63564;46.840;18.336;2023-02-01T05:43:54;5.43;;;2.10;;
75009;SDS011;63564;46.840;18.336;2023-02-01T05:46:54;4.43;;;1.90;;
75009;SDS011;63564;46.840;18.336;2023-02-01T05:49:55;3.05;;;1.80;;
75009;SDS011;63564;46.840;18.336;2023-02-01T05:52:55;6.27;;;2.33;;
75009;SDS011;63564;46.840;18.336;2023-02-01T05:55:56;3.90;;;2.10;;
75009;SDS011;63564;46.840;18.336;2023-02-01T05:58:56;5.80;;;2.63;;
75009;SDS011;63564;46.840;18.336;2023-02-01T06:01:56;5.90;;;2.67;;
75009;SDS011;63564;46.840;18.336;2023-02-01T06:04:57;5.97;;;2.80;;
75009;SDS011;63564;46.840;18.336;2023-02-01T06:07:57;6.15;;;2.13;;
75009;SDS011;63564;46.840;18.336;2023-02-01T06:11:02;4.43;;;1.63;;
75009;SDS011;63564;46.840;18.336;2023-02-01T06:14:03;5.80;;;2.25;;
75009;SDS011;63564;46.840;18.336;2023-02-01T06:17:04;5.43;;;1.93;;
75009;SDS011;63564;46.840;18.336;2023-02-01T06:20:06;6.85;;;1.63;;
75009;SDS011;63564;46.840;18.336;2023-02-01T06:23:08;4.80;;;2.00;;
75009;SDS011;63564;46.840;18.336;2023-02-01T06:26:09;4.68;;;1.77;;
75009;SDS011;63564;46.840;18.336;2023-02-01T06:29:09;5.68;;;2.30;;
75009;SDS011;63564;46.840;18.336;2023-02-01T06:32:10;7.30;;;2.83;;
75009;SDS011;63564;46.840;18.336;2023-02-01T06:35:10;6.87;;;3.07;;
75009;SDS011;63564;46.840;18.336;2023-02-01T06:38:15;8.75;;;3.53;;
75009;SDS011;63564;46.840;18.336;2023-02-01T06:41:17;8.47;;;2.60;;
75009;SDS011;63564;46.840;18.336;2023-02-01T06:44:17;5.93;;;2.50;;
75009;SDS011;63564;46.840;18.336;2023-02-01T06:47:18;9.57;;;3.10;;
75009;SDS011;63564;46.840;18.336;2023-02-01T06:50:18;6.63;;;2.93;;
75009;SDS011;63564;46.840;18.336;2023-02-01T06:53:19;4.23;;;1.77;;
75009;SDS011;63564;46.840;18.336;2023-02-01T06:56:19;3.08;;;1.60;;
75009;SDS011;63564;46.840;18.336;2023-02-01T06:59:20;2.90;;;1.55;;
75009;SDS011;63564;46.840;18.336;2023-02-01T07:02:21;6.50;;;2.38;;
75009;SDS011;63564;46.840;18.336;2023-02-01T07:05:21;8.18;;;2.08;;
75009;SDS011;63564;46.840;18.336;2023-02-01T07:08:21;7.43;;;2.80;;
75009;SDS011;63564;46.840;18.336;2023-02-01T07:11:22;6.23;;;2.77;;
75009;SDS011;63564;46.840;18.336;2023-02-01T07:14:22;3.87;;;1.57;;
75009;SDS011;63564;46.840;18.336;2023-02-01T07:17:23;3.43;;;1.63;;
75009;SDS011;63564;46.840;18.336;2023-02-01T07:20:23;4.63;;;2.10;;
75009;SDS011;63564;46.840;18.336;2023-02-01T07:23:24;5.28;;;2.35;;
75009;SDS011;63564;46.840;18.336;2023-02-01T07:26:25;4.70;;;1.83;;
75009;SDS011;63564;46.840;18.336;2023-02-01T07:29:25;3.80;;;1.70;;
75009;SDS011;63564;46.840;18.336;2023-02-01T07:32:26;4.93;;;2.10;;
75009;SDS011;63564;46.840;18.336;2023-02-01T07:35:29;4.30;;;1.90;;
75009;SDS011;63564;46.840;18.336;2023-02-01T07:38:29;3.92;;;1.52;;
75009;SDS011;63564;46.840;18.336;2023-02-01T07:41:30;6.72;;;1.77;;
75009;SDS011;63564;46.840;18.336;2023-02-01T07:44:30;5.57;;;2.20;;
75009;SDS011;63564;46.840;18.336;2023-02-01T07:47:31;3.97;;;1.83;;
75009;SDS011;63564;46.840;18.336;2023-02-01T07:50:31;3.10;;;1.07;;
75009;SDS011;63564;46.840;18.336;2023-02-01T07:53:33;3.35;;;1.50;;
75009;SDS011;63564;46.840;18.336;2023-02-01T07:56:34;5.30;;;2.10;;
75009;SDS011;63564;46.840;18.336;2023-02-01T07:59:34;7.88;;;2.85;;
75009;SDS011;63564;46.840;18.336;2023-02-01T08:02:35;6.30;;;2.80;;
75009;SDS011;63564;46.840;18.336;2023-02-01T08:05:35;11.20;;;4.63;;
75009;SDS011;63564;46.840;18.336;2023-02-01T08:08:36;6.45;;;2.90;;
75009;SDS011;63564;46.840;18.336;2023-02-01T08:11:37;3.30;;;1.50;;
75009;SDS011;63564;46.840;18.336;2023-02-01T08:14:38;8.00;;;3.40;;
75009;SDS011;63564;46.840;18.336;2023-02-01T08:17:46;7.57;;;3.00;;
75009;SDS011;63564;46.840;18.336;2023-02-01T08:20:47;3.97;;;1.55;;
75009;SDS011;63564;46.840;18.336;2023-02-01T08:23:48;5.57;;;2.30;;
75009;SDS011;63564;46.840;18.336;2023-02-01T08:26:49;8.48;;;2.70;;
75009;SDS011;63564;46.840;18.336;2023-02-01T08:29:49;7.97;;;2.58;;
75009;SDS011;63564;46.840;18.336;2023-02-01T08:32:50;3.47;;;1.40;;
75009;SDS011;63564;46.840;18.336;2023-02-01T08:35:51;6.38;;;2.67;;
75009;SDS011;63564;46.840;18.336;2023-02-01T08:38:51;4.93;;;2.40;;
75009;SDS011;63564;46.840;18.336;2023-02-01T08:41:52;9.43;;;2.87;;
75009;SDS011;63564;46.840;18.336;2023-02-01T08:45:11;7.43;;;3.38;;
75009;SDS011;63564;46.840;18.336;2023-02-01T08:48:11;10.17;;;4.43;;
75009;SDS011;63564;46.840;18.336;2023-02-01T08:51:12;7.25;;;3.28;;
75009;SDS011;63564;46.840;18.336;2023-02-01T08:54:14;7.30;;;3.33;;
75009;SDS011;63564;46.840;18.336;2023-02-01T08:57:14;10.75;;;5.03;;
75009;SDS011;63564;46.840;18.336;2023-02-01T09:00:16;9.60;;;3.90;;
75009;SDS011;63564;46.840;18.336;2023-02-01T09:03:17;10.88;;;6.20;;
75009;SDS011;63564;46.840;18.336;2023-02-01T09:06:17;15.70;;;9.03;;
75009;SDS011;63564;46.840;18.336;2023-02-01T09:09:22;11.30;;;5.00;;
75009;SDS011;63564;46.840;18.336;2023-02-01T09:12:23;10.93;;;4.65;;
75009;SDS011;63564;46.840;18.336;2023-02-01T09:15:23;5.77;;;2.03;;
75009;SDS011;63564;46.840;18.336;2023-02-01T09:18:24;5.77;;;2.70;;
75009;SDS011;63564;46.840;18.336;2023-02-01T09:21:24;7.72;;;3.80;;
75009;SDS011;63564;46.840;18.336;2023-02-01T09:24:25;9.03;;;3.63;;
75009;SDS011;63564;46.840;18.336;2023-02-01T09:27:25;10.10;;;4.10;;
75009;SDS011;63564;46.840;18.336;2023-02-01T09:30:26;7.50;;;3.20;;
75009;SDS011;63564;46.840;18.336;2023-02-01T09:33:26;10.40;;;5.25;;
75009;SDS011;63564;46.840;18.336;2023-02-01T09:36:28;9.15;;;4.28;;
75009;SDS011;63564;46.840;18.336;2023-02-01T09:39:29;8.50;;;4.17;;
75009;SDS011;63564;46.840;18.336;2023-02-01T09:43:18;10.45;;;5.10;;
75009;SDS011;63564;46.840;18.336;2023-02-01T09:46:28;13.77;;;6.78;;
75009;SDS011;63564;46.840;18.336;2023-02-01T09:49:35;18.73;;;9.00;;
75009;SDS011;63564;46.840;18.336;2023-02-01T09:56:11;12.02;;;6.18;;
75009;SDS011;63564;46.840;18.336;2023-02-01T10:02:26;34.28;;;15.55;;
75009;SDS011;63564;46.840;18.336;2023-02-01T10:18:37;49.77;;;24.90;;
75009;SDS011;63564;46.840;18.336;2023-02-01T10:28:25;13.93;;;6.20;;
75009;SDS011;63564;46.840;18.336;2023-02-01T10:31:26;7.63;;;3.43;;
75009;SDS011;63564;46.840;18.336;2023-02-01T10:34:31;7.20;;;3.15;;
75009;SDS011;63564;46.840;18.336;2023-02-01T10:37:34;7.53;;;3.25;;
75009;SDS011;63564;46.840;18.336;2023-02-01T10:40:35;7.97;;;3.50;;
75009;SDS011;63564;46.840;18.336;2023-02-01T10:43:37;7.45;;;4.00;;
75009;SDS011;63564;46.840;18.336;2023-02-01T10:46:39;9.23;;;4.68;;
75009;SDS011;63564;46.840;18.336;2023-02-01T10:56:38;11.57;;;5.50;;
75009;SDS011;63564;46.840;18.336;2023-02-01T10:59:38;12.57;;;6.57;;
75009;SDS011;63564;46.840;18.336;2023-02-01T11:02:39;13.47;;;7.80;;
75009;SDS011;63564;46.840;18.336;2023-02-01T11:05:45;15.27;;;7.77;;
75009;SDS011;63564;46.840;18.336;2023-02-01T11:08:48;18.15;;;8.50;;
75009;SDS011;63564;46.840;18.336;2023-02-01T11:14:55;14.13;;;8.10;;
75009;SDS011;63564;46.840;18.336;2023-02-01T11:18:07;15.68;;;8.40;;
75009;SDS011;63564;46.840;18.336;2023-02-01T11:21:15;14.02;;;8.15;;
75009;SDS011;63564;46.840;18.336;2023-02-01T11:24:20;15.03;;;7.93;;
75009;SDS011;63564;46.840;18.336;2023-02-01T11:27:24;14.27;;;8.07;;
75009;SDS011;63564;46.840;18.336;2023-02-01T11:30:36;16.10;;;8.55;;
75009;SDS011;63564;46.840;18.336;2023-02-01T11:33:43;15.70;;;8.15;;
75009;SDS011;63564;46.840;18.336;2023-02-01T11:36:49;14.88;;;8.38;;
75009;SDS011;63564;46.840;18.336;2023-02-01T11:39:57;14.98;;;7.90;;
75009;SDS011;63564;46.840;18.336;2023-02-01T11:43:00;16.50;;;8.60;;
75009;SDS011;63564;46.840;18.336;2023-02-01T11:46:14;15.82;;;8.00;;
75009;SDS011;63564;46.840;18.336;2023-02-01T11:49:21;16.75;;;8.15;;
75009;SDS011;63564;46.840;18.336;2023-02-01T11:52:30;16.20;;;8.63;;
75009;SDS011;63564;46.840;18.336;2023-02-01T11:55:56;15.80;;;7.20;;
75009;SDS011;63564;46.840;18.336;2023-02-01T12:05:27;15.98;;;7.88;;
75009;SDS011;63564;46.840;18.336;2023-02-01T12:18:51;16.55;;;8.93;;
75009;SDS011;63564;46.840;18.336;2023-02-01T12:48:19;20.00;;;10.33;;
75009;SDS011;63564;46.840;18.336;2023-02-01T12:51:31;20.75;;;11.48;;
75009;SDS011;63564;46.840;18.336;2023-02-01T12:54:40;24.88;;;13.80;;
75009;SDS011;63564;46.840;18.336;2023-02-01T12:57:48;38.47;;;20.58;;
75009;SDS011;63564;46.840;18.336;2023-02-01T13:01:02;51.42;;;24.65;;
75009;SDS011;63564;46.840;18.336;2023-02-01T13:07:16;35.45;;;19.48;;
75009;SDS011;63564;46.840;18.336;2023-02-01T13:17:15;21.35;;;12.48;;
75009;SDS011;63564;46.840;18.336;2023-02-01T13:20:42;23.08;;;14.13;;
75009;SDS011;63564;46.840;18.336;2023-02-01T13:23:52;23.27;;;11.85;;
75009;SDS011;63564;46.840;18.336;2023-02-01T13:26:53;21.85;;;11.65;;
75009;SDS011;63564;46.840;18.336;2023-02-01T13:29:56;19.48;;;11.48;;
75009;SDS011;63564;46.840;18.336;2023-02-01T13:39:43;23.93;;;12.37;;
75009;SDS011;63564;46.840;18.336;2023-02-01T13:42:54;21.27;;;12.02;;
75009;SDS011;63564;46.840;18.336;2023-02-01T13:45:57;27.58;;;13.20;;
75009;SDS011;63564;46.840;18.336;2023-02-01T13:49:05;22.92;;;12.80;;
75009;SDS011;63564;46.840;18.336;2023-02-01T13:52:05;18.47;;;8.60;;
75009;SDS011;63564;46.840;18.336;2023-02-01T13:58:22;14.23;;;6.10;;
75009;SDS011;63564;46.840;18.336;2023-02-01T14:01:32;21.05;;;10.50;;
75009;SDS011;63564;46.840;18.336;2023-02-01T14:04:48;18.73;;;10.37;;
75009;SDS011;63564;46.840;18.336;2023-02-01T14:17:35;11.03;;;4.60;;
75009;SDS011;63564;46.840;18.336;2023-02-01T14:20:41;27.85;;;12.75;;
75009;SDS011;63564;46.840;18.336;2023-02-01T14:23:46;28.92;;;13.05;;
75009;SDS011;63564;46.840;18.336;2023-02-01T14:26:55;13.20;;;6.35;;
75009;SDS011;63564;46.840;18.336;2023-02-01T14:29:58;18.58;;;9.07;;
75009;SDS011;63564;46.840;18.336;2023-02-01T14:33:03;24.60;;;12.50;;
75009;SDS011;63564;46.840;18.336;2023-02-01T14:36:17;24.27;;;11.38;;
75009;SDS011;63564;46.840;18.336;2023-02-01T14:39:28;18.67;;;9.70;;
75009;SDS011;63564;46.840;18.336;2023-02-01T14:42:52;18.88;;;8.63;;
75009;SDS011;63564;46.840;18.336;2023-02-01T14:45:54;18.60;;;8.50;;
75009;SDS011;63564;46.840;18.336;2023-02-01T14:48:55;19.07;;;9.57;;
75009;SDS011;63564;46.840;18.336;2023-02-01T14:51:56;19.92;;;10.93;;
75009;SDS011;63564;46.840;18.336;2023-02-01T14:54:57;19.13;;;9.03;;
75009;SDS011;63564;46.840;18.336;2023-02-01T14:58:05;22.13;;;11.68;;
75009;SDS011;63564;46.840;18.336;2023-02-01T15:01:23;17.45;;;8.32;;
75009;SDS011;63564;46.840;18.336;2023-02-01T15:04:46;15.50;;;7.53;;
75009;SDS011;63564;46.840;18.336;2023-02-01T15:07:54;20.25;;;10.35;;
75009;SDS011;63564;46.840;18.336;2023-02-01T15:10:55;20.80;;;9.80;;
75009;SDS011;63564;46.840;18.336;2023-02-01T15:13:58;19.40;;;8.23;;
75009;SDS011;63564;46.840;18.336;2023-02-01T15:17:00;21.25;;;10.55;;
75009;SDS011;63564;46.840;18.336;2023-02-01T15:20:23;19.27;;;9.40;;
75009;SDS011;63564;46.840;18.336;2023-02-01T15:23:23;17.73;;;9.32;;
75009;SDS011;63564;46.840;18.336;2023-02-01T15:26:24;15.65;;;7.20;;
75009;SDS011;63564;46.840;18.336;2023-02-01T15:29:26;15.13;;;7.35;;
75009;SDS011;63564;46.840;18.336;2023-02-01T15:32:31;14.55;;;6.57;;
75009;SDS011;63564;46.840;18.336;2023-02-01T15:35:55;11.68;;;6.13;;
75009;SDS011;63564;46.840;18.336;2023-02-01T15:39:15;12.33;;;6.30;;
75009;SDS011;63564;46.840;18.336;2023-02-01T15:42:19;9.98;;;4.68;;
75009;SDS011;63564;46.840;18.336;2023-02-01T15:45:21;11.47;;;5.53;;
75009;SDS011;63564;46.840;18.336;2023-02-01T15:48:26;11.52;;;5.95;;
75009;SDS011;63564;46.840;18.336;2023-02-01T15:51:29;9.60;;;4.57;;
75009;SDS011;63564;46.840;18.336;2023-02-01T15:54:37;10.98;;;5.30;;
75009;SDS011;63564;46.840;18.336;2023-02-01T15:57:46;8.20;;;4.15;;
75009;SDS011;63564;46.840;18.336;2023-02-01T16:07:30;11.10;;;5.22;;
75009;SDS011;63564;46.840;18.336;2023-02-01T16:10:37;9.02;;;4.45;;
75009;SDS011;63564;46.840;18.336;2023-02-01T16:13:40;11.02;;;4.60;;
75009;SDS011;63564;46.840;18.336;2023-02-01T16:16:41;6.77;;;3.47;;
75009;SDS011;63564;46.840;18.336;2023-02-01T16:19:41;11.07;;;4.57;;
75009;SDS011;63564;46.840;18.336;2023-02-01T16:22:42;7.93;;;4.00;;
75009;SDS011;63564;46.840;18.336;2023-02-01T16:25:42;8.60;;;4.07;;
75009;SDS011;63564;46.840;18.336;2023-02-01T16:28:43;8.57;;;3.70;;
75009;SDS011;63564;46.840;18.336;2023-02-01T16:31:44;7.88;;;3.22;;
75009;SDS011;63564;46.840;18.336;2023-02-01T16:34:45;5.50;;;2.45;;
75009;SDS011;63564;46.840;18.336;2023-02-01T16:37:46;6.10;;;2.92;;
75009;SDS011;63564;46.840;18.336;2023-02-01T16:40:47;5.15;;;1.95;;
75009;SDS011;63564;46.840;18.336;2023-02-01T16:43:49;5.00;;;2.10;;
75009;SDS011;63564;46.840;18.336;2023-02-01T16:46:53;5.78;;;2.30;;
75009;SDS011;63564;46.840;18.336;2023-02-01T16:49:53;4.63;;;1.80;;
75009;SDS011;63564;46.840;18.336;2023-02-01T16:52:54;4.40;;;1.90;;
75009;SDS011;63564;46.840;18.336;2023-02-01T16:55:54;5.63;;;2.17;;
75009;SDS011;63564;46.840;18.336;2023-02-01T16:58:57;3.17;;;1.40;;
75009;SDS011;63564;46.840;18.336;2023-02-01T17:01:58;1.85;;;1.13;;
75009;SDS011;63564;46.840;18.336;2023-02-01T17:04:58;2.10;;;1.20;;
75009;SDS011;63564;46.840;18.336;2023-02-01T17:08:00;3.60;;;1.50;;
75009;SDS011;63564;46.840;18.336;2023-02-01T17:11:07;5.35;;;2.63;;
75009;SDS011;63564;46.840;18.336;2023-02-01T17:14:12;4.82;;;1.90;;
75009;SDS011;63564;46.840;18.336;2023-02-01T17:17:18;4.67;;;2.43;;
75009;SDS011;63564;46.840;18.336;2023-02-01T17:20:21;4.90;;;2.70;;
75009;SDS011;63564;46.840;18.336;2023-02-01T17:23:23;3.20;;;1.40;;
75009;SDS011;63564;46.840;18.336;2023-02-01T17:26:24;2.65;;;1.52;;
75009;SDS011;63564;46.840;18.336;2023-02-01T17:29:25;3.25;;;1.50;;
75009;SDS011;63564;46.840;18.336;2023-02-01T17:32:26;1.73;;;1.13;;
75009;SDS011;63564;46.840;18.336;2023-02-01T17:35:28;8.05;;;3.45;;
75009;SDS011;63564;46.840;18.336;2023-02-01T17:38:31;5.82;;;2.17;;
75009;SDS011;63564;46.840;18.336;2023-02-01T17:41:33;3.97;;;1.90;;
75009;SDS011;63564;46.840;18.336;2023-02-01T17:44:37;3.60;;;1.55;;
75009;SDS011;63564;46.840;18.336;2023-02-01T17:47:38;3.72;;;1.50;;
75009;SDS011;63564;46.840;18.336;2023-02-01T17:50:38;4.17;;;1.63;;
75009;SDS011;63564;46.840;18.336;2023-02-01T17:53:39;5.13;;;2.03;;
75009;SDS011;63564;46.840;18.336;2023-02-01T17:56:40;6.10;;;1.33;;
75009;SDS011;63564;46.840;18.336;2023-02-01T17:59:41;5.28;;;2.17;;
75009;SDS011;63564;46.840;18.336;2023-02-01T18:02:42;4.70;;;1.63;;
75009;SDS011;63564;46.840;18.336;2023-02-01T18:05:43;3.65;;;1.38;;
75009;SDS011;63564;46.840;18.336;2023-02-01T18:08:49;2.75;;;1.50;;
75009;SDS011;63564;46.840;18.336;2023-02-01T18:11:50;4.13;;;1.20;;
75009;SDS011;63564;46.840;18.336;2023-02-01T18:14:54;4.47;;;1.80;;
75009;SDS011;63564;46.840;18.336;2023-02-01T18:17:56;4.07;;;1.65;;
75009;SDS011;63564;46.840;18.336;2023-02-01T18:20:57;4.17;;;1.60;;
75009;SDS011;63564;46.840;18.336;2023-02-01T18:24:01;4.53;;;1.60;;
75009;SDS011;63564;46.840;18.336;2023-02-01T18:27:02;2.22;;;1.20;;
75009;SDS011;63564;46.840;18.336;2023-02-01T18:30:03;2.63;;;1.50;;
75009;SDS011;63564;46.840;18.336;2023-02-01T18:33:10;4.38;;;2.00;;
75009;SDS011;63564;46.840;18.336;2023-02-01T18:36:12;3.25;;;1.67;;
75009;SDS011;63564;46.840;18.336;2023-02-01T18:39:12;4.88;;;2.30;;
75009;SDS011;63564;46.840;18.336;2023-02-01T18:42:13;7.28;;;2.22;;
75009;SDS011;63564;46.840;18.336;2023-02-01T18:48:38;3.42;;;1.48;;
75009;SDS011;63564;46.840;18.336;2023-02-01T18:51:39;4.25;;;1.92;;
75009;SDS011;63564;46.840;18.336;2023-02-01T18:54:44;2.67;;;1.45;;
75009;SDS011;63564;46.840;18.336;2023-02-01T18:57:45;4.93;;;2.23;;
75009;SDS011;63564;46.840;18.336;2023-02-01T19:00:46;6.18;;;2.38;;
75009;SDS011;63564;46.840;18.336;2023-02-01T19:03:48;4.50;;;1.60;;
75009;SDS011;63564;46.840;18.336;2023-02-01T19:06:49;1.95;;;1.20;;
75009;SDS011;63564;46.840;18.336;2023-02-01T19:09:50;3.28;;;1.88;;
75009;SDS011;63564;46.840;18.336;2023-02-01T19:12:51;3.90;;;2.10;;
75009;SDS011;63564;46.840;18.336;2023-02-01T19:15:54;4.68;;;2.10;;
75009;SDS011;63564;46.840;18.336;2023-02-01T19:18:55;2.88;;;1.35;;
75009;SDS011;63564;46.840;18.336;2023-02-01T19:21:57;2.95;;;1.48;;
75009;SDS011;63564;46.840;18.336;2023-02-01T19:24:58;1.58;;;0.90;;
75009;SDS011;63564;46.840;18.336;2023-02-01T19:28:00;2.63;;;1.17;;
75009;SDS011;63564;46.840;18.336;2023-02-01T19:31:02;2.77;;;1.47;;
75009;SDS011;63564;46.840;18.336;2023-02-01T19:34:04;3.60;;;1.30;;
75009;SDS011;63564;46.840;18.336;2023-02-01T19:37:05;3.22;;;1.33;;
75009;SDS011;63564;46.840;18.336;2023-02-01T19:40:11;6.30;;;2.20;;
75009;SDS011;63564;46.840;18.336;2023-02-01T19:43:14;4.57;;;1.98;;
75009;SDS011;63564;46.840;18.336;2023-02-01T19:46:14;4.28;;;2.00;;
75009;SDS011;63564;46.840;18.336;2023-02-01T19:49:15;3.57;;;1.60;;
75009;SDS011;63564;46.840;18.336;2023-02-01T19:52:17;3.55;;;1.52;;
75009;SDS011;63564;46.840;18.336;2023-02-01T19:55:18;3.87;;;1.80;;
75009;SDS011;63564;46.840;18.336;2023-02-01T19:58:19;4.43;;;1.50;;
75009;SDS011;63564;46.840;18.336;2023-02-01T20:01:21;3.92;;;1.58;;
75009;SDS011;63564;46.840;18.336;2023-02-01T20:04:22;5.85;;;1.75;;
75009;SDS011;63564;46.840;18.336;2023-02-01T20:07:23;5.10;;;1.80;;
75009;SDS011;63564;46.840;18.336;2023-02-01T20:10:24;4.40;;;1.40;;
75009;SDS011;63564;46.840;18.336;2023-02-01T20:13:25;5.20;;;1.80;;
75009;SDS011;63564;46.840;18.336;2023-02-01T20:16:26;4.60;;;1.92;;
75009;SDS011;63564;46.840;18.336;2023-02-01T20:19:27;3.13;;;1.47;;
75009;SDS011;63564;46.840;18.336;2023-02-01T20:22:27;4.55;;;2.03;;
75009;SDS011;63564;46.840;18.336;2023-02-01T20:25:30;4.25;;;1.98;;
75009;SDS011;63564;46.840;18.336;2023-02-01T20:28:31;3.40;;;1.40;;
75009;SDS011;63564;46.840;18.336;2023-02-01T20:31:33;2.67;;;1.40;;